sensor_id;sensor_type;location;lat;lon;timestamp;P1;durP1;ratioP1;P2;durP2;ratioP2
41685;SDS011;27370;42.764;23.432;2023-03-23T00:01:53;1.60;;;1.48;;
41685;SDS011;27370;42.764;23.432;2023-03-23T00:04:19;2.55;;;2.03;;
41685;SDS011;27370;42.764;23.432;2023-03-23T00:06:45;2.33;;;2.22;;
41685;SDS011;27370;42.764;23.432;2023-03-23T00:09:14;1.58;;;1.48;;
41685;SDS011;27370;42.764;23.432;2023-03-23T00:11:41;2.05;;;1.90;;
41685;SDS011;27370;42.764;23.432;2023-03-23T00:14:08;3.50;;;2.38;;
41685;SDS011;27370;42.764;23.432;2023-03-23T00:16:38;0.93;;;0.93;;
41685;SDS011;27370;42.764;23.432;2023-03-23T00:19:09;0.80;;;0.80;;
41685;SDS011;27370;42.764;23.432;2023-03-23T00:21:38;2.60;;;1.65;;
41685;SDS011;27370;42.764;23.432;2023-03-23T00:24:16;3.22;;;2.47;;
41685;SDS011;27370;42.764;23.432;2023-03-23T00:26:44;2.72;;;2.50;;
41685;SDS011;27370;42.764;23.432;2023-03-23T00:29:12;3.53;;;2.63;;
41685;SDS011;27370;42.764;23.432;2023-03-23T00:31:44;2.78;;;2.42;;
41685;SDS011;27370;42.764;23.432;2023-03-23T00:34:17;1.73;;;1.63;;
41685;SDS011;27370;42.764;23.432;2023-03-23T00:36:51;1.73;;;1.63;;
41685;SDS011;27370;42.764;23.432;2023-03-23T00:39:22;3.10;;;2.13;;
41685;SDS011;27370;42.764;23.432;2023-03-23T00:44:19;1.52;;;1.42;;
41685;SDS011;27370;42.764;23.432;2023-03-23T00:46:48;2.47;;;1.98;;
41685;SDS011;27370;42.764;23.432;2023-03-23T00:49:18;1.65;;;1.42;;
41685;SDS011;27370;42.764;23.432;2023-03-23T00:51:49;8.35;;;3.88;;
41685;SDS011;27370;42.764;23.432;2023-03-23T00:54:15;3.35;;;2.45;;
41685;SDS011;27370;42.764;23.432;2023-03-23T00:56:40;1.50;;;1.40;;
41685;SDS011;27370;42.764;23.432;2023-03-23T00:59:06;1.90;;;1.67;;
41685;SDS011;27370;42.764;23.432;2023-03-23T01:01:31;1.73;;;1.63;;
41685;SDS011;27370;42.764;23.432;2023-03-23T01:03:58;1.58;;;1.48;;
41685;SDS011;27370;42.764;23.432;2023-03-23T01:06:33;1.90;;;1.80;;
41685;SDS011;27370;42.764;23.432;2023-03-23T01:09:03;1.73;;;1.13;;
41685;SDS011;27370;42.764;23.432;2023-03-23T01:13:59;1.50;;;1.40;;
41685;SDS011;27370;42.764;23.432;2023-03-23T01:16:25;3.63;;;3.33;;
41685;SDS011;27370;42.764;23.432;2023-03-23T01:18:50;2.40;;;2.20;;
41685;SDS011;27370;42.764;23.432;2023-03-23T01:21:17;2.53;;;1.83;;
41685;SDS011;27370;42.764;23.432;2023-03-23T01:23:44;5.88;;;2.42;;
41685;SDS011;27370;42.764;23.432;2023-03-23T01:26:15;3.42;;;3.13;;
41685;SDS011;27370;42.764;23.432;2023-03-23T01:28:43;4.63;;;2.60;;
41685;SDS011;27370;42.764;23.432;2023-03-23T01:31:13;2.00;;;1.83;;
41685;SDS011;27370;42.764;23.432;2023-03-23T01:33:43;4.55;;;2.85;;
41685;SDS011;27370;42.764;23.432;2023-03-23T01:36:11;2.53;;;2.35;;
41685;SDS011;27370;42.764;23.432;2023-03-23T01:38:41;2.00;;;1.80;;
41685;SDS011;27370;42.764;23.432;2023-03-23T01:41:08;2.97;;;2.17;;
41685;SDS011;27370;42.764;23.432;2023-03-23T01:43:33;1.67;;;1.58;;
41685;SDS011;27370;42.764;23.432;2023-03-23T01:45:59;7.47;;;3.50;;
41685;SDS011;27370;42.764;23.432;2023-03-23T01:51:07;2.50;;;2.30;;
41685;SDS011;27370;42.764;23.432;2023-03-23T01:56:20;2.72;;;1.65;;
41685;SDS011;27370;42.764;23.432;2023-03-23T01:58:52;2.08;;;1.90;;
41685;SDS011;27370;42.764;23.432;2023-03-23T02:01:19;3.17;;;2.30;;
41685;SDS011;27370;42.764;23.432;2023-03-23T02:03:47;2.53;;;2.28;;
41685;SDS011;27370;42.764;23.432;2023-03-23T02:06:14;4.32;;;2.47;;
41685;SDS011;27370;42.764;23.432;2023-03-23T02:08:57;3.42;;;2.70;;
41685;SDS011;27370;42.764;23.432;2023-03-23T02:11:23;1.75;;;1.45;;
41685;SDS011;27370;42.764;23.432;2023-03-23T02:13:49;1.40;;;1.30;;
41685;SDS011;27370;42.764;23.432;2023-03-23T02:24:13;2.72;;;2.53;;
41685;SDS011;27370;42.764;23.432;2023-03-23T02:34:49;1.23;;;1.10;;
41685;SDS011;27370;42.764;23.432;2023-03-23T02:39:47;0.68;;;0.68;;
41685;SDS011;27370;42.764;23.432;2023-03-23T02:42:20;2.97;;;1.15;;
41685;SDS011;27370;42.764;23.432;2023-03-23T02:44:51;0.63;;;0.63;;
41685;SDS011;27370;42.764;23.432;2023-03-23T02:47:21;2.72;;;2.17;;
41685;SDS011;27370;42.764;23.432;2023-03-23T02:49:50;4.20;;;1.65;;
41685;SDS011;27370;42.764;23.432;2023-03-23T02:52:19;1.65;;;1.45;;
41685;SDS011;27370;42.764;23.432;2023-03-23T02:54:51;0.63;;;0.63;;
41685;SDS011;27370;42.764;23.432;2023-03-23T02:57:20;0.63;;;0.63;;
41685;SDS011;27370;42.764;23.432;2023-03-23T02:59:47;1.10;;;1.08;;
41685;SDS011;27370;42.764;23.432;2023-03-23T03:02:14;1.73;;;1.17;;
41685;SDS011;27370;42.764;23.432;2023-03-23T03:04:48;1.77;;;1.67;;
41685;SDS011;27370;42.764;23.432;2023-03-23T03:12:51;1.63;;;1.52;;
41685;SDS011;27370;42.764;23.432;2023-03-23T03:15:28;2.58;;;1.50;;
41685;SDS011;27370;42.764;23.432;2023-03-23T03:20:43;4.95;;;3.50;;
41685;SDS011;27370;42.764;23.432;2023-03-23T03:23:15;1.73;;;1.52;;
41685;SDS011;27370;42.764;23.432;2023-03-23T03:25:43;0.55;;;0.55;;
41685;SDS011;27370;42.764;23.432;2023-03-23T03:28:16;3.45;;;2.15;;
41685;SDS011;27370;42.764;23.432;2023-03-23T03:31:04;0.47;;;0.47;;
41685;SDS011;27370;42.764;23.432;2023-03-23T03:33:32;1.48;;;1.38;;
41685;SDS011;27370;42.764;23.432;2023-03-23T03:35:59;1.20;;;1.13;;
41685;SDS011;27370;42.764;23.432;2023-03-23T03:38:27;1.83;;;1.73;;
41685;SDS011;27370;42.764;23.432;2023-03-23T03:40:54;1.45;;;1.25;;
41685;SDS011;27370;42.764;23.432;2023-03-23T03:43:22;3.37;;;2.83;;
41685;SDS011;27370;42.764;23.432;2023-03-23T03:45:48;0.63;;;0.63;;
41685;SDS011;27370;42.764;23.432;2023-03-23T03:48:13;2.35;;;1.67;;
41685;SDS011;27370;42.764;23.432;2023-03-23T03:50:39;2.08;;;1.42;;
41685;SDS011;27370;42.764;23.432;2023-03-23T03:53:05;10.85;;;1.95;;
41685;SDS011;27370;42.764;23.432;2023-03-23T03:55:31;3.60;;;2.58;;
41685;SDS011;27370;42.764;23.432;2023-03-23T03:58:04;2.92;;;1.98;;
41685;SDS011;27370;42.764;23.432;2023-03-23T04:00:52;2.53;;;2.33;;
41685;SDS011;27370;42.764;23.432;2023-03-23T04:03:26;6.20;;;2.58;;
41685;SDS011;27370;42.764;23.432;2023-03-23T04:06:03;2.55;;;2.35;;
41685;SDS011;27370;42.764;23.432;2023-03-23T04:08:29;1.85;;;1.73;;
41685;SDS011;27370;42.764;23.432;2023-03-23T04:10:55;1.70;;;1.55;;
41685;SDS011;27370;42.764;23.432;2023-03-23T04:13:22;1.70;;;1.48;;
41685;SDS011;27370;42.764;23.432;2023-03-23T04:16:04;0.65;;;0.65;;
41685;SDS011;27370;42.764;23.432;2023-03-23T04:18:32;5.00;;;2.60;;
41685;SDS011;27370;42.764;23.432;2023-03-23T04:20:59;3.45;;;2.75;;
41685;SDS011;27370;42.764;23.432;2023-03-23T04:23:27;3.10;;;2.72;;
41685;SDS011;27370;42.764;23.432;2023-03-23T04:25:58;1.48;;;1.38;;
41685;SDS011;27370;42.764;23.432;2023-03-23T04:28:32;3.90;;;3.33;;
41685;SDS011;27370;42.764;23.432;2023-03-23T04:31:34;3.03;;;2.13;;
41685;SDS011;27370;42.764;23.432;2023-03-23T04:34:24;1.55;;;1.13;;
41685;SDS011;27370;42.764;23.432;2023-03-23T04:36:51;2.33;;;2.08;;
41685;SDS011;27370;42.764;23.432;2023-03-23T04:39:21;1.65;;;1.48;;
41685;SDS011;27370;42.764;23.432;2023-03-23T04:41:49;2.45;;;2.25;;
41685;SDS011;27370;42.764;23.432;2023-03-23T04:44:24;2.22;;;1.63;;
41685;SDS011;27370;42.764;23.432;2023-03-23T04:47:02;1.38;;;1.25;;
41685;SDS011;27370;42.764;23.432;2023-03-23T04:49:32;1.65;;;1.20;;
41685;SDS011;27370;42.764;23.432;2023-03-23T04:52:09;3.97;;;1.88;;
41685;SDS011;27370;42.764;23.432;2023-03-23T04:54:42;3.45;;;2.40;;
41685;SDS011;27370;42.764;23.432;2023-03-23T04:57:08;1.55;;;1.45;;
41685;SDS011;27370;42.764;23.432;2023-03-23T04:59:36;2.43;;;2.17;;
41685;SDS011;27370;42.764;23.432;2023-03-23T05:02:22;1.55;;;1.45;;
41685;SDS011;27370;42.764;23.432;2023-03-23T05:04:47;2.10;;;1.45;;
41685;SDS011;27370;42.764;23.432;2023-03-23T05:07:18;2.53;;;1.85;;
41685;SDS011;27370;42.764;23.432;2023-03-23T05:09:46;1.00;;;0.95;;
41685;SDS011;27370;42.764;23.432;2023-03-23T05:12:14;1.88;;;0.95;;
41685;SDS011;27370;42.764;23.432;2023-03-23T05:14:51;2.03;;;1.83;;
41685;SDS011;27370;42.764;23.432;2023-03-23T05:17:19;3.90;;;2.17;;
41685;SDS011;27370;42.764;23.432;2023-03-23T05:19:48;2.47;;;1.35;;
41685;SDS011;27370;42.764;23.432;2023-03-23T05:22:31;2.13;;;1.88;;
41685;SDS011;27370;42.764;23.432;2023-03-23T05:24:58;4.43;;;3.47;;
41685;SDS011;27370;42.764;23.432;2023-03-23T05:27:31;1.95;;;1.77;;
41685;SDS011;27370;42.764;23.432;2023-03-23T05:30:01;3.17;;;2.38;;
41685;SDS011;27370;42.764;23.432;2023-03-23T05:32:28;2.85;;;2.55;;
41685;SDS011;27370;42.764;23.432;2023-03-23T05:35:02;2.17;;;2.08;;
41685;SDS011;27370;42.764;23.432;2023-03-23T05:37:29;1.90;;;1.52;;
41685;SDS011;27370;42.764;23.432;2023-03-23T05:40:05;2.95;;;2.20;;
41685;SDS011;27370;42.764;23.432;2023-03-23T05:42:40;0.70;;;0.70;;
41685;SDS011;27370;42.764;23.432;2023-03-23T05:45:14;2.30;;;2.10;;
41685;SDS011;27370;42.764;23.432;2023-03-23T05:47:41;4.60;;;2.13;;
41685;SDS011;27370;42.764;23.432;2023-03-23T05:50:14;2.13;;;1.95;;
41685;SDS011;27370;42.764;23.432;2023-03-23T05:52:41;6.15;;;4.00;;
41685;SDS011;27370;42.764;23.432;2023-03-23T05:55:09;3.53;;;2.87;;
41685;SDS011;27370;42.764;23.432;2023-03-23T05:57:38;4.57;;;3.28;;
41685;SDS011;27370;42.764;23.432;2023-03-23T06:00:07;6.65;;;4.13;;
41685;SDS011;27370;42.764;23.432;2023-03-23T06:02:41;3.20;;;2.38;;
41685;SDS011;27370;42.764;23.432;2023-03-23T06:05:11;5.43;;;2.83;;
41685;SDS011;27370;42.764;23.432;2023-03-23T06:07:40;2.75;;;1.40;;
41685;SDS011;27370;42.764;23.432;2023-03-23T06:10:06;3.70;;;1.67;;
41685;SDS011;27370;42.764;23.432;2023-03-23T06:12:40;2.75;;;1.88;;
41685;SDS011;27370;42.764;23.432;2023-03-23T06:15:09;3.83;;;2.65;;
41685;SDS011;27370;42.764;23.432;2023-03-23T06:17:55;1.65;;;1.38;;
41685;SDS011;27370;42.764;23.432;2023-03-23T06:20:28;3.83;;;2.80;;
41685;SDS011;27370;42.764;23.432;2023-03-23T06:22:55;2.17;;;1.73;;
41685;SDS011;27370;42.764;23.432;2023-03-23T06:25:31;2.97;;;2.42;;
41685;SDS011;27370;42.764;23.432;2023-03-23T06:27:58;5.05;;;2.55;;
41685;SDS011;27370;42.764;23.432;2023-03-23T06:30:24;1.17;;;1.10;;
41685;SDS011;27370;42.764;23.432;2023-03-23T06:32:52;2.42;;;1.75;;
41685;SDS011;27370;42.764;23.432;2023-03-23T06:35:31;2.00;;;1.80;;
41685;SDS011;27370;42.764;23.432;2023-03-23T06:38:10;2.70;;;2.50;;
41685;SDS011;27370;42.764;23.432;2023-03-23T06:40:45;5.38;;;2.92;;
41685;SDS011;27370;42.764;23.432;2023-03-23T06:43:12;4.57;;;1.35;;
41685;SDS011;27370;42.764;23.432;2023-03-23T06:45:50;1.75;;;1.45;;
41685;SDS011;27370;42.764;23.432;2023-03-23T06:48:34;1.85;;;1.67;;
41685;SDS011;27370;42.764;23.432;2023-03-23T06:51:00;4.88;;;2.47;;
41685;SDS011;27370;42.764;23.432;2023-03-23T06:53:28;3.47;;;1.40;;
41685;SDS011;27370;42.764;23.432;2023-03-23T06:55:55;2.70;;;2.17;;
41685;SDS011;27370;42.764;23.432;2023-03-23T06:58:21;3.58;;;1.70;;
41685;SDS011;27370;42.764;23.432;2023-03-23T07:00:52;1.95;;;1.83;;
41685;SDS011;27370;42.764;23.432;2023-03-23T07:03:27;3.78;;;2.10;;
41685;SDS011;27370;42.764;23.432;2023-03-23T07:05:54;5.88;;;1.90;;
41685;SDS011;27370;42.764;23.432;2023-03-23T07:08:21;2.65;;;2.45;;
41685;SDS011;27370;42.764;23.432;2023-03-23T07:10:53;3.00;;;2.63;;
41685;SDS011;27370;42.764;23.432;2023-03-23T07:13:24;3.03;;;2.72;;
41685;SDS011;27370;42.764;23.432;2023-03-23T07:15:54;4.03;;;2.10;;
41685;SDS011;27370;42.764;23.432;2023-03-23T07:18:20;2.83;;;2.53;;
41685;SDS011;27370;42.764;23.432;2023-03-23T07:20:48;3.60;;;2.45;;
41685;SDS011;27370;42.764;23.432;2023-03-23T07:23:19;3.35;;;2.63;;
41685;SDS011;27370;42.764;23.432;2023-03-23T07:25:54;2.83;;;2.45;;
41685;SDS011;27370;42.764;23.432;2023-03-23T07:28:26;7.05;;;3.60;;
41685;SDS011;27370;42.764;23.432;2023-03-23T07:30:53;7.13;;;3.65;;
41685;SDS011;27370;42.764;23.432;2023-03-23T07:33:19;4.15;;;2.92;;
41685;SDS011;27370;42.764;23.432;2023-03-23T07:35:47;6.10;;;3.78;;
41685;SDS011;27370;42.764;23.432;2023-03-23T07:38:15;4.95;;;3.42;;
41685;SDS011;27370;42.764;23.432;2023-03-23T07:40:46;4.38;;;3.33;;
41685;SDS011;27370;42.764;23.432;2023-03-23T07:43:15;4.97;;;3.53;;
41685;SDS011;27370;42.764;23.432;2023-03-23T07:45:59;5.03;;;3.38;;
41685;SDS011;27370;42.764;23.432;2023-03-23T07:48:43;2.88;;;2.55;;
41685;SDS011;27370;42.764;23.432;2023-03-23T07:51:09;3.88;;;3.10;;
41685;SDS011;27370;42.764;23.432;2023-03-23T07:53:35;3.40;;;3.10;;
41685;SDS011;27370;42.764;23.432;2023-03-23T07:56:30;5.18;;;3.10;;
41685;SDS011;27370;42.764;23.432;2023-03-23T07:59:20;4.03;;;3.47;;
41685;SDS011;27370;42.764;23.432;2023-03-23T08:01:46;5.72;;;2.80;;
41685;SDS011;27370;42.764;23.432;2023-03-23T08:04:30;3.88;;;2.45;;
41685;SDS011;27370;42.764;23.432;2023-03-23T08:07:07;2.28;;;2.08;;
41685;SDS011;27370;42.764;23.432;2023-03-23T08:09:43;8.90;;;6.38;;
41685;SDS011;27370;42.764;23.432;2023-03-23T08:12:27;40.10;;;26.92;;
41685;SDS011;27370;42.764;23.432;2023-03-23T08:15:16;36.27;;;25.60;;
41685;SDS011;27370;42.764;23.432;2023-03-23T08:17:54;31.42;;;24.10;;
41685;SDS011;27370;42.764;23.432;2023-03-23T08:20:48;33.58;;;23.48;;
41685;SDS011;27370;42.764;23.432;2023-03-23T08:23:31;33.50;;;21.33;;
41685;SDS011;27370;42.764;23.432;2023-03-23T08:26:27;31.38;;;21.90;;
41685;SDS011;27370;42.764;23.432;2023-03-23T08:29:13;31.23;;;22.38;;
41685;SDS011;27370;42.764;23.432;2023-03-23T08:31:48;28.77;;;20.10;;
41685;SDS011;27370;42.764;23.432;2023-03-23T08:34:29;30.02;;;20.70;;
41685;SDS011;27370;42.764;23.432;2023-03-23T08:37:25;28.13;;;19.80;;
41685;SDS011;27370;42.764;23.432;2023-03-23T08:40:21;26.02;;;18.90;;
41685;SDS011;27370;42.764;23.432;2023-03-23T08:42:59;24.08;;;17.83;;
41685;SDS011;27370;42.764;23.432;2023-03-23T08:45:25;23.88;;;16.70;;
41685;SDS011;27370;42.764;23.432;2023-03-23T08:48:23;24.48;;;17.08;;
41685;SDS011;27370;42.764;23.432;2023-03-23T08:51:06;26.63;;;18.48;;
41685;SDS011;27370;42.764;23.432;2023-03-23T08:53:44;24.20;;;17.30;;
41685;SDS011;27370;42.764;23.432;2023-03-23T08:56:39;22.45;;;16.65;;
41685;SDS011;27370;42.764;23.432;2023-03-23T08:59:23;23.23;;;17.35;;
41685;SDS011;27370;42.764;23.432;2023-03-23T09:02:11;21.85;;;16.20;;
41685;SDS011;27370;42.764;23.432;2023-03-23T09:04:45;23.42;;;17.23;;
41685;SDS011;27370;42.764;23.432;2023-03-23T09:07:38;20.75;;;15.13;;
41685;SDS011;27370;42.764;23.432;2023-03-23T09:10:04;24.20;;;17.33;;
41685;SDS011;27370;42.764;23.432;2023-03-23T09:12:31;22.35;;;15.18;;
41685;SDS011;27370;42.764;23.432;2023-03-23T09:14:56;20.40;;;14.93;;
41685;SDS011;27370;42.764;23.432;2023-03-23T09:17:22;18.58;;;12.73;;
41685;SDS011;27370;42.764;23.432;2023-03-23T09:19:48;18.65;;;12.77;;
41685;SDS011;27370;42.764;23.432;2023-03-23T09:22:13;18.42;;;13.38;;
41685;SDS011;27370;42.764;23.432;2023-03-23T09:24:40;17.92;;;12.25;;
41685;SDS011;27370;42.764;23.432;2023-03-23T09:27:06;17.08;;;12.90;;
41685;SDS011;27370;42.764;23.432;2023-03-23T09:29:31;24.40;;;14.95;;
41685;SDS011;27370;42.764;23.432;2023-03-23T09:31:57;17.20;;;11.32;;
41685;SDS011;27370;42.764;23.432;2023-03-23T09:34:23;16.48;;;10.88;;
41685;SDS011;27370;42.764;23.432;2023-03-23T09:36:49;15.65;;;9.10;;
41685;SDS011;27370;42.764;23.432;2023-03-23T09:39:15;12.90;;;6.97;;
41685;SDS011;27370;42.764;23.432;2023-03-23T09:46:50;14.88;;;8.73;;
41685;SDS011;27370;42.764;23.432;2023-03-23T09:49:26;12.75;;;7.88;;
41685;SDS011;27370;42.764;23.432;2023-03-23T09:52:00;14.43;;;8.73;;
41685;SDS011;27370;42.764;23.432;2023-03-23T09:54:37;12.95;;;8.25;;
41685;SDS011;27370;42.764;23.432;2023-03-23T09:57:11;13.75;;;9.50;;
41685;SDS011;27370;42.764;23.432;2023-03-23T10:08:17;15.18;;;9.55;;
41685;SDS011;27370;42.764;23.432;2023-03-23T10:11:08;14.10;;;8.55;;
41685;SDS011;27370;42.764;23.432;2023-03-23T10:16:34;13.00;;;8.38;;
41685;SDS011;27370;42.764;23.432;2023-03-23T10:19:09;13.55;;;7.38;;
41685;SDS011;27370;42.764;23.432;2023-03-23T10:21:40;13.55;;;9.07;;
41685;SDS011;27370;42.764;23.432;2023-03-23T10:24:10;12.80;;;8.20;;
41685;SDS011;27370;42.764;23.432;2023-03-23T10:29:47;11.63;;;6.88;;
41685;SDS011;27370;42.764;23.432;2023-03-23T10:32:16;11.77;;;6.53;;
41685;SDS011;27370;42.764;23.432;2023-03-23T10:34:50;10.98;;;6.60;;
41685;SDS011;27370;42.764;23.432;2023-03-23T10:37:24;12.65;;;7.38;;
41685;SDS011;27370;42.764;23.432;2023-03-23T10:39:53;11.80;;;7.13;;
41685;SDS011;27370;42.764;23.432;2023-03-23T10:42:24;10.63;;;6.82;;
41685;SDS011;27370;42.764;23.432;2023-03-23T10:44:50;11.35;;;6.55;;
41685;SDS011;27370;42.764;23.432;2023-03-23T10:47:17;10.38;;;6.10;;
41685;SDS011;27370;42.764;23.432;2023-03-23T10:49:56;11.70;;;7.10;;
41685;SDS011;27370;42.764;23.432;2023-03-23T10:57:30;11.43;;;6.07;;
41685;SDS011;27370;42.764;23.432;2023-03-23T11:00:18;9.68;;;5.75;;
41685;SDS011;27370;42.764;23.432;2023-03-23T11:05:44;10.05;;;6.25;;
41685;SDS011;27370;42.764;23.432;2023-03-23T11:08:18;8.57;;;5.00;;
41685;SDS011;27370;42.764;23.432;2023-03-23T11:10:50;10.43;;;5.10;;
41685;SDS011;27370;42.764;23.432;2023-03-23T11:13:19;9.70;;;5.45;;
41685;SDS011;27370;42.764;23.432;2023-03-23T11:15:47;9.93;;;5.70;;
41685;SDS011;27370;42.764;23.432;2023-03-23T11:18:24;9.65;;;5.50;;
41685;SDS011;27370;42.764;23.432;2023-03-23T11:20:57;9.55;;;5.65;;
41685;SDS011;27370;42.764;23.432;2023-03-23T11:23:24;8.98;;;5.43;;
41685;SDS011;27370;42.764;23.432;2023-03-23T11:28:25;9.32;;;5.13;;
41685;SDS011;27370;42.764;23.432;2023-03-23T11:30:54;12.25;;;5.72;;
41685;SDS011;27370;42.764;23.432;2023-03-23T11:33:21;10.60;;;5.43;;
41685;SDS011;27370;42.764;23.432;2023-03-23T11:35:50;9.55;;;5.22;;
41685;SDS011;27370;42.764;23.432;2023-03-23T11:38:19;9.90;;;5.57;;
41685;SDS011;27370;42.764;23.432;2023-03-23T11:40:49;9.10;;;5.13;;
41685;SDS011;27370;42.764;23.432;2023-03-23T11:43:23;8.02;;;4.88;;
41685;SDS011;27370;42.764;23.432;2023-03-23T11:48:57;16.13;;;8.85;;
41685;SDS011;27370;42.764;23.432;2023-03-23T11:51:39;7.60;;;4.50;;
41685;SDS011;27370;42.764;23.432;2023-03-23T11:54:34;7.50;;;4.40;;
41685;SDS011;27370;42.764;23.432;2023-03-23T11:57:06;9.90;;;4.93;;
41685;SDS011;27370;42.764;23.432;2023-03-23T11:59:36;8.88;;;4.93;;
41685;SDS011;27370;42.764;23.432;2023-03-23T12:07:56;9.95;;;5.20;;
41685;SDS011;27370;42.764;23.432;2023-03-23T12:10:45;10.00;;;5.32;;
41685;SDS011;27370;42.764;23.432;2023-03-23T12:18:57;9.13;;;5.50;;
41685;SDS011;27370;42.764;23.432;2023-03-23T12:24:38;8.68;;;4.90;;
41685;SDS011;27370;42.764;23.432;2023-03-23T12:27:36;9.05;;;5.15;;
41685;SDS011;27370;42.764;23.432;2023-03-23T12:51:42;8.80;;;4.70;;
41685;SDS011;27370;42.764;23.432;2023-03-23T13:02:22;10.70;;;5.50;;
41685;SDS011;27370;42.764;23.432;2023-03-23T13:05:00;9.25;;;5.25;;
41685;SDS011;27370;42.764;23.432;2023-03-23T13:07:35;8.80;;;5.18;;
41685;SDS011;27370;42.764;23.432;2023-03-23T13:10:23;9.82;;;5.45;;
41685;SDS011;27370;42.764;23.432;2023-03-23T13:12:52;14.27;;;7.00;;
41685;SDS011;27370;42.764;23.432;2023-03-23T13:20:40;10.43;;;6.30;;
41685;SDS011;27370;42.764;23.432;2023-03-23T13:23:24;10.93;;;5.97;;
41685;SDS011;27370;42.764;23.432;2023-03-23T13:25:59;10.32;;;5.68;;
41685;SDS011;27370;42.764;23.432;2023-03-23T13:28:28;10.77;;;5.22;;
41685;SDS011;27370;42.764;23.432;2023-03-23T13:30:58;12.23;;;5.05;;
41685;SDS011;27370;42.764;23.432;2023-03-23T13:33:29;9.05;;;5.07;;
41685;SDS011;27370;42.764;23.432;2023-03-23T13:36:01;8.98;;;5.22;;
41685;SDS011;27370;42.764;23.432;2023-03-23T13:38:32;10.77;;;5.80;;
41685;SDS011;27370;42.764;23.432;2023-03-23T13:40:58;9.32;;;5.53;;
41685;SDS011;27370;42.764;23.432;2023-03-23T13:43:35;12.00;;;5.60;;
41685;SDS011;27370;42.764;23.432;2023-03-23T13:46:10;9.85;;;5.32;;
41685;SDS011;27370;42.764;23.432;2023-03-23T13:56:42;10.60;;;5.70;;
41685;SDS011;27370;42.764;23.432;2023-03-23T14:01:52;9.20;;;5.10;;
41685;SDS011;27370;42.764;23.432;2023-03-23T14:04:22;9.32;;;5.32;;
41685;SDS011;27370;42.764;23.432;2023-03-23T14:06:56;11.75;;;5.85;;
41685;SDS011;27370;42.764;23.432;2023-03-23T14:12:06;10.30;;;5.95;;
41685;SDS011;27370;42.764;23.432;2023-03-23T14:14:43;10.48;;;6.07;;
41685;SDS011;27370;42.764;23.432;2023-03-23T14:17:18;10.05;;;5.25;;
41685;SDS011;27370;42.764;23.432;2023-03-23T14:19:48;9.65;;;5.43;;
41685;SDS011;27370;42.764;23.432;2023-03-23T14:22:32;9.75;;;5.40;;
41685;SDS011;27370;42.764;23.432;2023-03-23T14:25:21;10.35;;;5.28;;
41685;SDS011;27370;42.764;23.432;2023-03-23T14:27:46;9.60;;;5.40;;
41685;SDS011;27370;42.764;23.432;2023-03-23T14:30:13;9.35;;;4.90;;
41685;SDS011;27370;42.764;23.432;2023-03-23T14:32:51;60.70;;;37.00;;
41685;SDS011;27370;42.764;23.432;2023-03-23T14:35:34;11.45;;;6.90;;
41685;SDS011;27370;42.764;23.432;2023-03-23T14:38:01;11.98;;;5.97;;
41685;SDS011;27370;42.764;23.432;2023-03-23T14:40:28;10.60;;;5.60;;
41685;SDS011;27370;42.764;23.432;2023-03-23T14:42:55;11.32;;;6.10;;
41685;SDS011;27370;42.764;23.432;2023-03-23T14:45:22;10.27;;;6.00;;
41685;SDS011;27370;42.764;23.432;2023-03-23T14:50:30;9.07;;;5.35;;
41685;SDS011;27370;42.764;23.432;2023-03-23T14:53:23;10.43;;;5.32;;
41685;SDS011;27370;42.764;23.432;2023-03-23T14:55:54;9.07;;;5.10;;
41685;SDS011;27370;42.764;23.432;2023-03-23T14:58:22;10.95;;;5.90;;
41685;SDS011;27370;42.764;23.432;2023-03-23T15:00:59;11.10;;;5.78;;
41685;SDS011;27370;42.764;23.432;2023-03-23T15:03:33;9.77;;;5.60;;
41685;SDS011;27370;42.764;23.432;2023-03-23T15:06:03;10.27;;;6.22;;
41685;SDS011;27370;42.764;23.432;2023-03-23T15:08:36;8.93;;;4.75;;
41685;SDS011;27370;42.764;23.432;2023-03-23T15:11:11;8.98;;;4.50;;
41685;SDS011;27370;42.764;23.432;2023-03-23T15:13:37;9.27;;;5.20;;
41685;SDS011;27370;42.764;23.432;2023-03-23T15:16:12;11.35;;;5.05;;
41685;SDS011;27370;42.764;23.432;2023-03-23T15:18:46;9.82;;;4.88;;
41685;SDS011;27370;42.764;23.432;2023-03-23T15:21:21;9.35;;;4.78;;
41685;SDS011;27370;42.764;23.432;2023-03-23T15:23:49;10.23;;;5.00;;
41685;SDS011;27370;42.764;23.432;2023-03-23T15:27:02;11.20;;;4.60;;
41685;SDS011;27370;42.764;23.432;2023-03-23T15:31:33;12.02;;;4.80;;
41685;SDS011;27370;42.764;23.432;2023-03-23T15:34:04;8.93;;;4.72;;
41685;SDS011;27370;42.764;23.432;2023-03-23T15:36:33;8.52;;;4.72;;
41685;SDS011;27370;42.764;23.432;2023-03-23T15:39:00;9.15;;;4.90;;
41685;SDS011;27370;42.764;23.432;2023-03-23T15:41:28;8.70;;;4.88;;
41685;SDS011;27370;42.764;23.432;2023-03-23T15:44:09;10.38;;;4.88;;
41685;SDS011;27370;42.764;23.432;2023-03-23T15:46:47;8.95;;;5.00;;
41685;SDS011;27370;42.764;23.432;2023-03-23T15:49:15;12.38;;;5.60;;
41685;SDS011;27370;42.764;23.432;2023-03-23T15:51:41;10.18;;;5.35;;
41685;SDS011;27370;42.764;23.432;2023-03-23T15:54:09;9.23;;;5.10;;
41685;SDS011;27370;42.764;23.432;2023-03-23T15:56:39;9.32;;;5.00;;
41685;SDS011;27370;42.764;23.432;2023-03-23T15:59:07;8.93;;;5.13;;
41685;SDS011;27370;42.764;23.432;2023-03-23T16:04:23;9.43;;;5.10;;
41685;SDS011;27370;42.764;23.432;2023-03-23T16:06:50;12.80;;;5.43;;
41685;SDS011;27370;42.764;23.432;2023-03-23T16:09:18;8.38;;;4.72;;
41685;SDS011;27370;42.764;23.432;2023-03-23T16:11:45;11.68;;;5.57;;
41685;SDS011;27370;42.764;23.432;2023-03-23T16:14:11;14.35;;;5.90;;
41685;SDS011;27370;42.764;23.432;2023-03-23T16:16:44;14.35;;;6.95;;
41685;SDS011;27370;42.764;23.432;2023-03-23T16:19:12;16.48;;;8.35;;
41685;SDS011;27370;42.764;23.432;2023-03-23T16:21:39;12.40;;;7.18;;
41685;SDS011;27370;42.764;23.432;2023-03-23T16:24:05;10.32;;;5.13;;
41685;SDS011;27370;42.764;23.432;2023-03-23T16:26:31;10.18;;;5.38;;
41685;SDS011;27370;42.764;23.432;2023-03-23T16:28:57;9.90;;;5.10;;
41685;SDS011;27370;42.764;23.432;2023-03-23T16:31:22;11.60;;;5.50;;
41685;SDS011;27370;42.764;23.432;2023-03-23T16:33:48;11.65;;;6.15;;
41685;SDS011;27370;42.764;23.432;2023-03-23T16:36:14;10.90;;;6.00;;
41685;SDS011;27370;42.764;23.432;2023-03-23T16:38:40;14.23;;;7.60;;
41685;SDS011;27370;42.764;23.432;2023-03-23T16:41:06;15.73;;;9.45;;
41685;SDS011;27370;42.764;23.432;2023-03-23T16:43:32;20.38;;;11.48;;
41685;SDS011;27370;42.764;23.432;2023-03-23T16:45:58;16.35;;;9.30;;
41685;SDS011;27370;42.764;23.432;2023-03-23T16:48:23;18.42;;;11.32;;
41685;SDS011;27370;42.764;23.432;2023-03-23T16:50:51;16.73;;;11.70;;
41685;SDS011;27370;42.764;23.432;2023-03-23T16:53:17;12.32;;;6.28;;
41685;SDS011;27370;42.764;23.432;2023-03-23T16:55:44;12.15;;;6.60;;
41685;SDS011;27370;42.764;23.432;2023-03-23T16:58:12;14.05;;;6.53;;
41685;SDS011;27370;42.764;23.432;2023-03-23T17:00:39;12.00;;;7.10;;
41685;SDS011;27370;42.764;23.432;2023-03-23T17:03:04;15.95;;;7.72;;
41685;SDS011;27370;42.764;23.432;2023-03-23T17:05:31;20.08;;;7.80;;
41685;SDS011;27370;42.764;23.432;2023-03-23T17:07:56;13.88;;;7.35;;
41685;SDS011;27370;42.764;23.432;2023-03-23T17:10:23;15.20;;;8.27;;
41685;SDS011;27370;42.764;23.432;2023-03-23T17:12:51;15.40;;;8.43;;
41685;SDS011;27370;42.764;23.432;2023-03-23T17:15:18;15.00;;;8.45;;
41685;SDS011;27370;42.764;23.432;2023-03-23T17:17:44;12.63;;;7.32;;